CheckWX is a tool to help pilots better visualize weather data.  It is not intended as a substitute for an official pre-flight weather briefing.

07:19:14 UTC

LBGO TAF
Gorna Oryahovitsa Airport
Gorna Oryahovitsa, Bulgaria
TAF LBGO 190500Z 1906/2006 VRB04KT 9999 SCT030 BKN050 BECMG 1907/1909 10010KT PROB30 TEMPO 1909/1920 VRB20KT 5000 TSRA SCT030CB BKN040 BECMG 1918/1920 VRB04KT

Jun-19@
06:00 UTC

Jun-19 @ 06:00 UTC

Jun-19@
07:00 UTC

Jun-19 @ 07:00 UTC

TAF LBGO 190500Z 1906/2006 VRB04KT 9999 SCT030 BKN050

Expired

Wind
  • Variable at 4 KTS
Cloud Levels
  • Scattered at 3,000' AGL
  • Broken at 5,000' AGL

Jun-19@
07:00 UTC

Jun-19 @ 07:00 UTC

Jun-19@
18:00 UTC

Jun-19 @ 18:00 UTC

BECMG 1907/1909 10010KT

Becoming

Becoming Conditions expected by Wed, Jun 19, 2019 @ 09:00 UTC

Wind
  • 100° at 10 KTS
Cloud Levels
  • Scattered at 3,000' AGL
  • Broken at 5,000' AGL

Jun-19@
09:00 UTC

Jun-19 @ 09:00 UTC

Jun-19@
20:00 UTC

Jun-19 @ 20:00 UTC

PROB30 TEMPO 1909/1920 VRB20KT 5000 TSRA SCT030CB BKN040

Temporary - 30% Likelihood

Temporary - 30% Likelihood during this time.

Wind
  • Variable at 20 KTS
Conditions
Thunderstorm, Rain
Cloud Levels
  • Scattered at 3,000' AGL
  • Broken at 4,000' AGL

Jun-19@
18:00 UTC

Jun-19 @ 18:00 UTC

Jun-20@
06:00 UTC

Jun-20 @ 06:00 UTC

BECMG 1918/1920 VRB04KT

Becoming

Becoming Conditions expected by Wed, Jun 19, 2019 @ 20:00 UTC

Wind
  • Variable at 4 KTS
Cloud Levels
  • Scattered at 3,000' AGL
  • Broken at 5,000' AGL